Time;durP1;ratioP1;P1;durP2;ratioP2;P2;SDS_P1;SDS_P2;PMS_P1;PMS_P2;Temp;Humidity;BMP_temperature;BMP_pressure;BME280_temperature;BME280_humidity;BME280_pressure;Samples;Min_cycle;Max_cycle;Signal;HPM_P1;HPM_P2
2022/05/26 00:02:19;;;;;;;29.23;5.43;;;;;;;13.07;100.00;101782.00;5049377;28;20060;-74
2022/05/26 00:04:45;;;;;;;34.35;5.95;;;;;;;13.07;100.00;101780.16;5049656;28;20035;-75
2022/05/26 00:07:10;;;;;;;34.13;5.68;;;;;;;13.08;100.00;101781.00;5050955;28;20041;-75
2022/05/26 00:09:36;;;;;;;30.45;5.80;;;;;;;13.08;100.00;101776.50;5052108;28;20029;-74
2022/05/26 00:12:01;;;;;;;32.30;4.82;;;;;;;13.08;100.00;101783.66;5053656;28;20040;-74
2022/05/26 00:14:27;;;;;;;38.35;5.80;;;;;;;13.09;100.00;101783.53;5053728;28;20029;-74
2022/05/26 00:16:53;;;;;;;23.10;4.82;;;;;;;13.08;99.63;101781.00;5052884;28;20041;-74
2022/05/26 00:19:18;;;;;;;29.67;5.15;;;;;;;13.08;99.80;101783.66;5053080;28;20120;-76
2022/05/26 00:21:46;;;;;;;30.30;5.60;;;;;;;13.08;99.50;101781.84;5053044;28;20048;-78
2022/05/26 00:24:12;;;;;;;33.78;6.10;;;;;;;13.11;99.37;101778.09;5053102;28;20171;-76
2022/05/26 00:26:37;;;;;;;28.70;5.65;;;;;;;13.13;98.69;101789.47;5051766;28;20060;-76
2022/05/26 00:29:03;;;;;;;25.70;4.45;;;;;;;13.13;98.71;101778.78;5053033;28;20040;-74
2022/05/26 00:31:28;;;;;;;31.13;5.88;;;;;;;13.14;98.61;101784.00;5052884;28;20033;-76
2022/05/26 00:33:53;;;;;;;37.05;5.78;;;;;;;13.14;98.32;101785.84;5053215;28;20093;-77
2022/05/26 00:36:37;;;;;;;27.08;4.68;;;;;;;13.14;97.85;101786.66;5052796;28;20392;-76
2022/05/26 00:39:09;;;;;;;30.92;5.45;;;;;;;13.18;97.56;101792.56;5052354;28;20596;-74
2022/05/26 00:41:39;;;;;;;22.65;4.70;;;;;;;13.20;97.14;101799.50;5053076;28;20142;-74
2022/05/26 00:44:04;;;;;;;32.55;5.55;;;;;;;13.22;96.99;101794.00;5052627;28;20033;-74
2022/05/26 00:46:46;;;;;;;33.10;5.90;;;;;;;13.22;96.75;101800.19;5051667;28;20106;-73
2022/05/26 00:49:21;;;;;;;29.10;5.32;;;;;;;13.22;96.64;101804.69;5052299;28;20043;-75
2022/05/26 00:51:47;;;;;;;25.42;5.10;;;;;;;13.23;96.36;101799.22;5052758;28;20056;-74
2022/05/26 00:54:19;;;;;;;31.48;5.60;;;;;;;13.24;96.23;101810.75;5052431;28;20090;-75
2022/05/26 00:56:57;;;;;;;22.00;3.90;;;;;;;13.22;95.93;101815.38;5035215;28;20035;-77
2022/05/26 00:59:42;;;;;;;25.88;4.40;;;;;;;13.20;95.99;101815.53;5052107;28;20504;-76
2022/05/26 01:02:08;;;;;;;33.95;5.05;;;;;;;13.20;95.21;101807.50;5052007;28;20107;-74
2022/05/26 01:04:46;;;;;;;21.63;4.35;;;;;;;13.20;95.43;101809.34;5052188;28;20422;-73
2022/05/26 01:07:15;;;;;;;22.88;4.35;;;;;;;13.20;95.11;101818.19;5052097;28;20044;-75
2022/05/26 01:09:41;;;;;;;27.73;5.40;;;;;;;13.16;95.21;101815.94;5052035;28;20025;-74
2022/05/26 01:12:07;;;;;;;27.42;4.13;;;;;;;13.13;95.11;101813.53;5052030;28;20123;-74
2022/05/26 01:14:38;;;;;;;24.67;4.75;;;;;;;13.10;95.27;101817.28;5051681;28;20045;-74
2022/05/26 01:17:24;;;;;;;22.10;4.20;;;;;;;13.08;94.73;101808.56;5051739;28;20028;-73
2022/05/26 01:19:59;;;;;;;21.83;4.15;;;;;;;13.07;95.06;101819.41;5051921;28;20055;-76
2022/05/26 01:22:45;;;;;;;21.42;4.68;;;;;;;13.03;94.05;101819.66;5052024;28;20112;-77
2022/05/26 01:25:48;;;;;;;22.50;4.10;;;;;;;12.99;93.41;101825.41;5051448;28;20393;-73
2022/05/26 01:28:40;;;;;;;15.50;3.30;;;;;;;12.99;92.98;101828.06;5051904;28;20548;-76
2022/05/26 01:31:47;;;;;;;14.25;3.47;;;;;;;13.04;91.85;101833.84;5051738;28;20029;-76
2022/05/26 01:34:43;;;;;;;20.73;3.10;;;;;;;13.07;90.59;101816.72;5031838;28;20093;-76
2022/05/26 01:37:17;;;;;;;15.60;3.10;;;;;;;13.11;89.60;101826.19;5051114;28;20381;-75
2022/05/26 01:40:01;;;;;;;15.30;3.05;;;;;;;13.08;89.64;101829.94;5051859;28;20029;-76
2022/05/26 01:43:02;;;;;;;21.98;3.72;;;;;;;13.08;89.24;101837.97;5051461;28;20120;-76
2022/05/26 01:45:48;;;;;;;21.60;3.35;;;;;;;13.05;89.18;101843.56;5028986;28;20065;-75
2022/05/26 01:48:21;;;;;;;11.70;2.63;;;;;;;12.98;89.54;101845.06;5049836;28;20049;-75
2022/05/26 01:51:19;;;;;;;14.52;3.15;;;;;;;12.94;89.30;101839.13;5051173;28;20033;-76
2022/05/26 01:54:15;;;;;;;14.95;2.80;;;;;;;12.86;89.32;101849.63;5047989;28;20131;-76
2022/05/26 01:56:55;;;;;;;16.92;3.15;;;;;;;12.87;89.11;101843.31;5051516;28;20056;-76
2022/05/26 01:59:25;;;;;;;13.75;2.70;;;;;;;12.90;89.30;101851.06;5051093;28;20020;-76
2022/05/26 02:01:56;;;;;;;17.50;2.92;;;;;;;12.92;89.54;101845.59;5050752;28;20029;-77
2022/05/26 02:04:27;;;;;;;19.08;2.97;;;;;;;12.99;88.97;101858.28;5051395;28;20148;-76
2022/05/26 02:06:58;;;;;;;18.80;3.30;;;;;;;13.02;89.12;101847.34;5049550;28;20036;-76
2022/05/26 02:09:29;;;;;;;12.50;3.15;;;;;;;13.02;89.24;101852.69;5051088;28;20271;-76
2022/05/26 02:12:00;;;;;;;16.87;2.80;;;;;;;13.02;89.82;101862.53;5051085;28;20098;-76
2022/05/26 02:14:37;;;;;;;;;;;;;;;12.96;90.23;101863.06;5051127;28;20029;-76
2022/05/26 02:17:09;;;;;;;12.48;2.90;;;;;;;12.90;90.13;101863.56;5050825;28;19917;-76
2022/05/26 02:19:40;;;;;;;13.65;3.28;;;;;;;12.86;90.32;101863.81;5050735;28;20033;-75
2022/05/26 02:22:21;;;;;;;14.05;3.10;;;;;;;12.83;90.16;101865.91;5050811;28;20029;-77
2022/05/26 02:24:52;;;;;;;15.60;3.15;;;;;;;12.80;90.06;101867.00;5049600;28;20396;-76
2022/05/26 02:27:18;;;;;;;13.80;2.95;;;;;;;12.76;89.42;101865.56;5049747;28;20091;-76
2022/05/26 02:29:52;;;;;;;13.80;3.35;;;;;;;12.69;89.75;101870.56;5050269;28;20075;-76
2022/05/26 02:32:29;;;;;;;19.92;3.28;;;;;;;12.62;90.25;101868.56;5050558;28;20437;-76
2022/05/26 02:34:58;;;;;;;15.50;3.22;;;;;;;12.57;90.20;101879.63;5050774;28;20029;-76
2022/05/26 02:37:25;;;;;;;14.00;2.50;;;;;;;12.49;90.70;101877.53;5050249;28;20053;-76
2022/05/26 02:39:51;;;;;;;24.05;3.65;;;;;;;12.49;91.07;101890.06;5050484;28;20303;-76
2022/05/26 02:42:17;;;;;;;12.48;2.90;;;;;;;12.42;91.15;101897.72;5050442;28;20170;-76
2022/05/26 02:44:44;;;;;;;14.15;3.17;;;;;;;12.38;91.94;101893.63;5049061;28;20382;-75
2022/05/26 02:47:37;;;;;;;12.05;2.67;;;;;;;12.33;92.45;101894.00;5050406;28;20178;-76
2022/05/26 02:50:19;;;;;;;10.40;2.50;;;;;;;12.31;92.32;101895.91;5050586;28;20045;-79
2022/05/26 02:53:03;;;;;;;13.70;2.95;;;;;;;12.24;92.60;101897.41;5050295;28;20040;-75
2022/05/26 02:55:37;;;;;;;15.00;2.70;;;;;;;12.22;93.42;101896.66;5050284;28;20103;-76
2022/05/26 02:58:29;;;;;;;15.82;3.42;;;;;;;12.17;93.88;101904.22;5050416;28;20033;-75
2022/05/26 03:01:06;;;;;;;14.07;2.88;;;;;;;12.13;94.33;101898.25;5050793;28;20480;-76
2022/05/26 03:03:45;;;;;;;18.55;3.00;;;;;;;12.10;94.72;101909.19;5050429;28;20033;-76
2022/05/26 03:06:15;;;;;;;18.75;3.08;;;;;;;12.06;95.12;101898.88;5050326;28;20109;-76
2022/05/26 03:08:43;;;;;;;15.70;3.28;;;;;;;12.06;95.35;101915.75;5050324;28;20044;-76
2022/05/26 03:11:18;;;;;;;12.52;3.05;;;;;;;12.11;95.59;101904.72;5048657;28;20384;-77
2022/05/26 03:13:43;;;;;;;17.15;2.90;;;;;;;12.15;95.56;101901.66;5050311;28;20104;-76
2022/05/26 03:16:09;;;;;;;12.18;3.13;;;;;;;12.20;94.96;101906.63;5048575;28;20124;-76
2022/05/26 03:18:35;;;;;;;13.38;2.78;;;;;;;12.20;94.64;101909.28;5050194;28;20119;-76
2022/05/26 03:21:01;;;;;;;15.82;2.97;;;;;;;12.17;95.03;101914.88;5049938;28;20450;-75
2022/05/26 03:23:28;;;;;;;12.48;2.80;;;;;;;12.15;95.25;101923.00;5049949;28;20105;-76
2022/05/26 03:25:56;;;;;;;11.77;3.25;;;;;;;12.13;95.10;101910.75;5049902;28;20029;-76
2022/05/26 03:28:22;;;;;;;21.00;3.83;;;;;;;12.13;95.54;101910.75;5049923;28;20477;-76
2022/05/26 03:30:47;;;;;;;18.50;3.10;;;;;;;12.11;95.28;101918.03;5050347;28;20138;-75
2022/05/26 03:33:12;;;;;;;11.88;2.67;;;;;;;12.09;95.32;101923.50;5049850;28;20420;-76
2022/05/26 03:41:10;;;;;;;12.38;2.85;;;;;;;11.91;96.19;101915.13;5040416;28;20089;-76
2022/05/26 03:43:40;;;;;;;19.65;3.35;;;;;;;11.88;96.38;101925.16;5053825;28;20427;-76
2022/05/26 03:46:06;;;;;;;20.55;3.40;;;;;;;11.88;96.41;101920.66;5054015;28;20033;-76
2022/05/26 03:48:31;;;;;;;13.13;2.65;;;;;;;11.86;96.41;101924.44;5053633;28;20047;-76
2022/05/26 03:50:57;;;;;;;14.13;3.50;;;;;;;11.88;96.55;101928.66;5053958;28;20384;-75
2022/05/26 03:53:23;;;;;;;18.02;3.08;;;;;;;11.90;96.63;101931.25;5053524;28;20032;-76
2022/05/26 03:55:48;;;;;;;20.13;2.83;;;;;;;11.95;96.40;101940.59;5053649;28;20033;-76
2022/05/26 03:58:14;;;;;;;11.38;2.90;;;;;;;12.02;96.32;101935.63;5053371;28;20025;-77
2022/05/26 04:00:39;;;;;;;13.02;2.85;;;;;;;12.12;95.58;101930.41;5053592;28;20117;-75
2022/05/26 04:03:04;;;;;;;16.88;3.33;;;;;;;12.21;95.06;101936.81;5053366;28;20033;-76
2022/05/26 04:05:30;;;;;;;16.60;3.10;;;;;;;12.29;94.63;101945.91;5053330;28;20033;-76
2022/05/26 04:07:56;;;;;;;24.15;3.55;;;;;;;12.32;94.24;101943.00;5053346;28;20048;-76
2022/05/26 04:10:22;;;;;;;21.83;3.53;;;;;;;12.36;93.79;101946.28;5053194;28;20060;-76
2022/05/26 04:12:48;;;;;;;13.98;3.03;;;;;;;12.38;93.64;101946.16;5053203;28;20040;-76
2022/05/26 04:15:14;;;;;;;13.23;3.20;;;;;;;12.43;92.99;101954.63;5053191;28;20045;-75
2022/05/26 04:17:40;;;;;;;25.10;3.80;;;;;;;12.48;92.83;101965.75;5052928;28;20029;-76
2022/05/26 04:20:08;;;;;;;15.10;2.92;;;;;;;12.52;92.46;101972.56;5051491;28;20488;-76
2022/05/26 04:22:34;;;;;;;12.20;3.30;;;;;;;12.55;91.96;101966.97;5051404;28;20061;-76
2022/05/26 04:25:00;;;;;;;14.25;2.95;;;;;;;12.56;92.41;101970.50;5052934;28;20059;-77
2022/05/26 04:27:29;;;;;;;10.38;2.67;;;;;;;12.54;92.35;101967.97;5052989;28;20029;-76
2022/05/26 04:29:55;;;;;;;13.73;2.88;;;;;;;12.58;92.32;101988.06;5053011;28;20100;-76
2022/05/26 04:32:23;;;;;;;17.23;3.45;;;;;;;12.58;91.96;101981.91;5053289;28;20143;-76
2022/05/26 04:34:51;;;;;;;12.52;2.60;;;;;;;12.56;92.08;101979.34;5052963;28;20037;-74
2022/05/26 04:37:18;;;;;;;12.48;3.03;;;;;;;12.52;92.23;101983.22;5052639;28;20064;-74
2022/05/26 04:39:43;;;;;;;10.68;2.70;;;;;;;12.46;92.46;101986.41;5052831;28;20037;-75
2022/05/26 04:42:09;;;;;;;16.50;3.03;;;;;;;12.38;92.68;101991.53;5052757;28;20021;-74
2022/05/26 04:44:38;;;;;;;12.98;2.83;;;;;;;12.27;93.42;101990.56;5052346;28;20037;-75
2022/05/26 04:47:04;;;;;;;11.73;2.72;;;;;;;12.20;93.96;101993.84;5051303;28;20033;-75
2022/05/26 04:49:29;;;;;;;13.85;3.05;;;;;;;12.17;94.38;101992.25;5052197;28;20029;-76
2022/05/26 04:51:55;;;;;;;10.07;3.20;;;;;;;12.19;94.54;101997.47;5051676;28;20035;-75
2022/05/26 04:54:21;;;;;;;14.90;3.50;;;;;;;12.17;94.79;101989.59;5052128;28;20029;-74
2022/05/26 04:56:47;;;;;;;12.50;2.88;;;;;;;12.13;94.68;101996.13;5053169;28;20060;-76
2022/05/26 04:59:12;;;;;;;13.45;3.58;;;;;;;12.08;95.10;101995.66;5052491;28;20429;-76
2022/05/26 05:01:38;;;;;;;14.93;3.08;;;;;;;12.11;95.33;102000.75;5052624;28;20033;-74
2022/05/26 05:04:03;;;;;;;16.00;3.05;;;;;;;12.14;95.43;102004.00;5050544;28;20046;-75
2022/05/26 05:06:29;;;;;;;6.95;2.20;;;;;;;12.16;95.44;102011.88;5051025;28;20533;-74
2022/05/26 05:08:54;;;;;;;12.27;2.75;;;;;;;12.15;95.42;102008.38;5052186;28;20029;-74
2022/05/26 05:11:20;;;;;;;11.82;2.95;;;;;;;12.17;95.98;102016.28;5051999;28;20102;-74
2022/05/26 05:13:45;;;;;;;15.38;3.40;;;;;;;12.21;95.89;102019.53;5052265;28;20051;-76
2022/05/26 05:16:18;;;;;;;15.65;3.22;;;;;;;12.25;95.81;102021.84;5050594;28;20485;-75
2022/05/26 05:18:44;;;;;;;15.23;3.08;;;;;;;12.29;95.17;102025.97;5051822;28;20055;-76
2022/05/26 05:21:15;;;;;;;20.58;2.88;;;;;;;12.32;94.97;102028.38;5051735;28;20430;-76
2022/05/26 05:23:44;;;;;;;15.88;3.20;;;;;;;12.36;94.77;102031.69;5052103;28;20414;-75
2022/05/26 05:26:15;;;;;;;12.13;3.00;;;;;;;12.38;94.44;102031.56;5051681;28;20032;-75
2022/05/26 05:28:46;;;;;;;14.18;2.97;;;;;;;12.41;94.36;102033.97;5052043;28;20032;-75
2022/05/26 05:31:15;;;;;;;16.52;3.22;;;;;;;12.42;94.23;102030.31;5052044;28;20039;-75
2022/05/26 05:33:56;;;;;;;16.75;2.67;;;;;;;12.45;93.89;102036.28;5049810;28;20033;-75
2022/05/26 05:36:25;;;;;;;9.15;2.60;;;;;;;12.51;93.77;102042.97;5051499;28;20025;-75
2022/05/26 05:38:51;;;;;;;13.43;2.90;;;;;;;12.62;92.72;102042.94;5051655;28;20163;-75
2022/05/26 05:41:18;;;;;;;11.52;2.53;;;;;;;12.70;91.91;102039.63;5051145;28;20029;-74
2022/05/26 05:43:44;;;;;;;17.40;3.30;;;;;;;12.75;91.77;102042.81;5051262;28;20491;-75
2022/05/26 05:46:11;;;;;;;15.90;3.55;;;;;;;12.82;91.83;102049.34;5051424;28;20037;-74
2022/05/26 05:48:37;;;;;;;12.55;3.00;;;;;;;12.90;90.85;102047.84;5051286;28;20029;-75
2022/05/26 05:51:03;;;;;;;15.18;2.60;;;;;;;13.02;90.87;102057.56;5052059;28;20037;-75
2022/05/26 05:53:28;;;;;;;23.95;4.72;;;;;;;13.14;90.10;102064.56;5051586;28;20032;-76
2022/05/26 05:55:53;;;;;;;13.93;2.67;;;;;;;13.28;89.87;102065.25;5050412;28;20120;-75
2022/05/26 05:58:19;;;;;;;15.65;2.50;;;;;;;13.39;88.24;102058.06;5051855;28;20511;-75
2022/05/26 06:00:44;;;;;;;11.27;3.15;;;;;;;13.51;89.02;102068.69;5051482;28;20044;-75
2022/05/26 06:03:10;;;;;;;13.57;2.70;;;;;;;13.64;88.36;102061.34;5051830;28;20025;-75
2022/05/26 06:05:36;;;;;;;9.20;2.53;;;;;;;13.76;86.66;102067.47;5051709;28;20087;-75
2022/05/26 06:08:02;;;;;;;12.57;2.88;;;;;;;13.89;86.32;102069.97;5051925;28;20487;-73
2022/05/26 06:10:29;;;;;;;13.82;3.50;;;;;;;14.04;86.01;102068.66;5051396;28;20128;-75
2022/05/26 06:12:55;;;;;;;11.13;2.90;;;;;;;14.25;84.24;102073.13;5051311;28;20033;-74
2022/05/26 06:15:20;;;;;;;14.75;2.55;;;;;;;14.42;83.70;102080.56;5051135;28;20040;-74
2022/05/26 06:17:46;;;;;;;12.77;2.70;;;;;;;14.61;81.76;102079.81;5049474;28;20043;-74
2022/05/26 06:20:13;;;;;;;11.93;2.65;;;;;;;14.72;80.37;102080.69;5051649;28;20032;-74
2022/05/26 06:22:47;;;;;;;8.95;2.30;;;;;;;14.57;79.35;102097.09;5049515;28;20037;-74
2022/05/26 06:25:15;;;;;;;14.57;3.00;;;;;;;14.45;79.58;102095.47;5051524;28;20056;-74
2022/05/26 06:30:32;;;;;;;11.85;2.65;;;;;;;14.60;81.34;102091.47;5050919;28;20072;-73
2022/05/26 06:38:35;;;;;;;10.80;2.33;;;;;;;15.10;79.92;102104.06;5050621;28;20064;-74
2022/05/26 06:43:45;;;;;;;12.80;2.50;;;;;;;15.24;76.48;102107.31;5051081;28;20354;-74
2022/05/26 06:46:11;;;;;;;16.58;3.00;;;;;;;15.22;76.08;102112.00;5051046;28;20096;-74
2022/05/26 06:48:36;;;;;;;10.18;2.40;;;;;;;15.22;76.54;102117.34;5050875;28;20029;-75
2022/05/26 06:51:05;;;;;;;9.65;2.63;;;;;;;15.18;75.42;102110.56;5050637;28;20029;-74
2022/05/26 06:53:30;;;;;;;10.18;2.58;;;;;;;15.22;75.20;102117.34;5050757;28;20040;-74
2022/05/26 06:55:56;;;;;;;7.85;2.15;;;;;;;15.27;75.26;102115.97;5050535;28;20072;-74
2022/05/26 06:58:21;;;;;;;16.60;2.88;;;;;;;15.37;76.09;102107.06;5050837;28;20183;-75
2022/05/26 07:00:46;;;;;;;12.00;2.05;;;;;;;15.48;75.11;102120.31;5050681;28;20033;-75
2022/05/26 07:03:14;;;;;;;11.52;2.90;;;;;;;15.62;73.51;102119.91;5050786;28;20029;-74
2022/05/26 07:05:39;;;;;;;18.65;2.75;;;;;;;15.65;73.52;102122.31;5049853;28;20071;-75
2022/05/26 07:08:05;;;;;;;8.68;2.35;;;;;;;15.63;73.62;102123.44;5051013;28;20433;-74
2022/05/26 07:10:33;;;;;;;10.07;2.40;;;;;;;15.79;74.44;102123.75;5049482;28;20057;-75
2022/05/26 07:12:59;;;;;;;11.10;2.40;;;;;;;16.01;72.89;102125.28;5050692;28;20531;-74
2022/05/26 07:15:25;;;;;;;10.98;2.70;;;;;;;16.13;72.70;102123.28;5051200;28;20124;-74
2022/05/26 07:17:50;;;;;;;10.57;2.20;;;;;;;16.29;71.59;102132.59;5054305;28;20048;-74
2022/05/26 07:20:16;;;;;;;12.88;2.58;;;;;;;16.41;70.81;102128.75;5054608;28;20051;-74
2022/05/26 07:22:41;;;;;;;13.02;2.22;;;;;;;16.48;71.30;102131.69;5054776;28;20037;-75
2022/05/26 07:25:08;;;;;;;12.05;2.75;;;;;;;16.43;70.31;102124.06;5054642;28;20048;-74
2022/05/26 07:27:34;;;;;;;8.32;2.38;;;;;;;16.43;69.27;102132.13;5054197;28;20131;-75
2022/05/26 07:30:00;;;;;;;13.80;2.75;;;;;;;16.36;69.55;102137.25;5055149;28;20440;-75
2022/05/26 07:32:25;;;;;;;12.68;2.60;;;;;;;16.31;68.62;102127.91;5054753;28;20074;-74
2022/05/26 07:34:50;;;;;;;15.82;2.80;;;;;;;16.31;68.83;102141.34;5054041;28;20029;-76
2022/05/26 07:42:44;;;;;;;11.23;2.50;;;;;;;16.69;67.24;102150.25;5054075;28;20495;-76
2022/05/26 07:45:10;;;;;;;16.00;2.92;;;;;;;16.66;67.65;102143.38;5054538;28;20025;-74
2022/05/26 07:47:36;;;;;;;14.38;3.50;;;;;;;16.52;67.04;102152.72;5054327;28;20033;-74
2022/05/26 07:50:04;;;;;;;12.00;2.65;;;;;;;16.54;67.43;102148.06;5054149;28;20029;-74
2022/05/26 07:52:30;;;;;;;16.52;2.90;;;;;;;16.55;67.98;102162.34;5054160;28;20036;-77
2022/05/26 07:54:55;;;;;;;20.95;3.30;;;;;;;16.55;67.23;102163.19;5053636;28;20041;-74
2022/05/26 07:57:25;;;;;;;19.70;3.35;;;;;;;16.69;67.01;102164.56;5053965;28;20069;-75
2022/05/26 07:59:51;;;;;;;9.45;2.63;;;;;;;16.86;66.61;102162.09;5053503;28;20025;-74
2022/05/26 08:02:18;;;;;;;11.50;2.28;;;;;;;17.15;64.18;102161.94;5053199;28;20460;-73
2022/05/26 08:04:44;;;;;;;9.70;2.25;;;;;;;17.09;64.23;102159.88;5052852;28;20098;-76
2022/05/26 08:07:10;;;;;;;6.43;2.10;;;;;;;17.11;64.68;102160.59;5053287;28;20459;-75
2022/05/26 08:09:40;;;;;;;10.82;2.42;;;;;;;17.12;63.81;102156.03;5053078;28;20113;-74
2022/05/26 08:12:10;;;;;;;9.45;2.53;;;;;;;17.15;65.00;102159.25;5052890;28;20449;-74
2022/05/26 08:14:36;;;;;;;9.90;2.13;;;;;;;17.35;65.07;102161.88;5053510;28;20053;-74
2022/05/26 08:17:01;;;;;;;12.57;2.60;;;;;;;17.45;63.19;102165.31;5051710;28;20067;-76
2022/05/26 08:19:28;;;;;;;10.82;2.55;;;;;;;17.73;62.43;102166.09;5053174;28;20044;-76
2022/05/26 08:21:54;;;;;;;9.65;2.40;;;;;;;17.81;62.54;102168.03;5052587;28;20496;-76
2022/05/26 08:24:19;;;;;;;17.45;2.90;;;;;;;18.02;61.89;102173.13;5051377;28;20029;-76
2022/05/26 08:26:46;;;;;;;9.50;2.55;;;;;;;18.04;61.47;102172.97;5052737;28;20226;-76
2022/05/26 08:29:12;;;;;;;14.27;2.53;;;;;;;18.41;59.60;102183.50;5052809;28;20125;-76
2022/05/26 08:31:37;;;;;;;13.55;2.38;;;;;;;18.90;59.69;102187.50;5052719;28;20468;-75
2022/05/26 08:34:03;;;;;;;11.95;2.50;;;;;;;19.20;57.41;102191.53;5052825;28;20044;-75
2022/05/26 08:36:28;;;;;;;11.45;3.03;;;;;;;19.70;55.93;102184.38;5052802;28;20091;-75
2022/05/26 08:38:55;;;;;;;10.70;2.67;;;;;;;19.63;55.15;102191.44;5053153;28;20072;-75
2022/05/26 08:41:27;;;;;;;12.93;2.88;;;;;;;19.77;55.75;102198.06;5052484;28;20408;-75
2022/05/26 08:44:01;;;;;;;7.57;2.33;;;;;;;20.38;54.48;102195.88;5053741;28;20130;-76
2022/05/26 08:46:49;;;;;;;9.93;2.75;;;;;;;20.77;52.47;102197.84;5052611;28;20119;-76
2022/05/26 08:49:25;;;;;;;9.85;2.53;;;;;;;20.18;53.84;102195.38;5052956;28;20033;-76
2022/05/26 08:51:55;;;;;;;15.75;3.13;;;;;;;20.77;52.59;102209.50;5052855;28;20052;-77
2022/05/26 08:54:27;;;;;;;14.55;2.88;;;;;;;21.71;49.96;102211.47;5052650;28;20086;-75
2022/05/26 08:56:57;;;;;;;10.70;2.50;;;;;;;21.99;49.32;102219.88;5052903;28;20430;-76
2022/05/26 08:59:31;;;;;;;12.65;2.58;;;;;;;21.50;48.27;102222.94;5052819;28;20124;-76
2022/05/26 09:02:00;;;;;;;9.65;2.30;;;;;;;20.69;52.72;102214.94;5052590;28;20116;-75
2022/05/26 09:04:26;;;;;;;10.93;2.95;;;;;;;21.02;51.15;102209.44;5052653;28;20059;-75
2022/05/26 09:15:14;;;;;;;10.82;3.10;;;;;;;21.72;48.27;102229.41;5052418;28;20064;-77
2022/05/26 09:17:40;;;;;;;14.20;3.30;;;;;;;22.28;46.45;102228.28;5052005;28;20411;-76
2022/05/26 09:20:25;;;;;;;11.82;2.65;;;;;;;23.56;43.21;102224.47;5050309;28;20195;-76
2022/05/26 09:22:51;;;;;;;10.68;2.28;;;;;;;24.42;41.73;102244.50;5052059;28;20376;-76
2022/05/26 09:25:42;;;;;;;10.15;2.67;;;;;;;24.09;42.38;102245.06;5051993;28;20033;-76
2022/05/26 09:28:09;;;;;;;15.50;3.08;;;;;;;23.72;41.77;102236.09;5050736;28;20033;-76
2022/05/26 09:30:35;;;;;;;16.25;2.85;;;;;;;23.92;42.43;102245.34;5052173;28;20087;-75
2022/05/26 09:33:01;;;;;;;10.70;2.80;;;;;;;24.02;41.78;102238.72;5051822;28;20437;-76
2022/05/26 09:35:31;;;;;;;15.13;2.65;;;;;;;24.40;41.62;102242.00;5052108;28;20409;-76
2022/05/26 09:38:00;;;;;;;11.60;3.40;;;;;;;24.28;40.95;102257.16;5051518;28;20122;-76
2022/05/26 09:40:35;;;;;;;11.35;2.50;;;;;;;23.59;41.37;102255.84;5050826;28;20326;-75
2022/05/26 09:43:17;;;;;;;16.90;3.70;;;;;;;23.40;43.61;102246.41;5051189;28;20470;-76
2022/05/26 09:45:48;;;;;;;12.27;2.88;;;;;;;23.75;41.44;102238.44;5051600;28;20128;-77
2022/05/26 09:48:19;;;;;;;12.82;2.80;;;;;;;24.08;42.05;102241.53;5051500;28;20059;-75
2022/05/26 09:51:04;;;;;;;11.95;2.85;;;;;;;24.11;41.65;102254.72;5051661;28;20452;-75
2022/05/26 09:53:42;;;;;;;10.63;2.67;;;;;;;24.81;39.22;102257.59;5051535;28;20122;-76
2022/05/26 09:56:12;;;;;;;12.95;2.80;;;;;;;25.63;38.82;102255.06;5051511;28;20101;-75
2022/05/26 09:58:43;;;;;;;7.38;2.30;;;;;;;25.62;37.33;102261.53;5051389;28;20094;-75
2022/05/26 10:01:20;;;;;;;8.55;2.10;;;;;;;26.14;37.28;102269.19;5051412;28;20089;-76
2022/05/26 10:03:58;;;;;;;11.23;2.78;;;;;;;25.68;37.42;102265.34;5050882;28;20103;-77
2022/05/26 10:06:35;;;;;;;13.13;3.03;;;;;;;25.01;38.34;102270.47;5051224;28;20033;-77
2022/05/26 10:09:15;;;;;;;13.60;3.35;;;;;;;24.77;39.24;102264.47;5050921;28;20028;-76
2022/05/26 10:12:03;;;;;;;11.95;2.60;;;;;;;24.72;39.75;102264.25;5051343;28;20037;-75
2022/05/26 10:14:43;;;;;;;10.52;2.92;;;;;;;24.51;39.54;102265.09;5050886;28;20178;-76
2022/05/26 10:17:40;;;;;;;14.68;3.08;;;;;;;24.00;40.54;102255.25;5050729;28;20033;-76
2022/05/26 10:20:28;;;;;;;10.23;2.80;;;;;;;24.19;41.34;102264.63;5051252;28;20025;-76
2022/05/26 10:23:13;;;;;;;11.57;2.72;;;;;;;24.22;40.20;102261.50;5050738;28;20029;-76
2022/05/26 10:26:16;;;;;;;7.60;2.30;;;;;;;23.49;41.37;102256.13;5051091;28;20048;-76
2022/05/26 10:29:07;;;;;;;9.38;2.40;;;;;;;23.71;41.48;102259.72;5050541;28;20370;-76
2022/05/26 10:31:58;;;;;;;12.27;2.90;;;;;;;23.89;41.98;102258.50;5051137;28;20021;-75
2022/05/26 10:34:45;;;;;;;6.00;2.10;;;;;;;23.35;40.88;102265.16;5050889;28;20051;-75
2022/05/26 10:37:32;;;;;;;11.82;2.35;;;;;;;23.01;41.77;102255.72;5048817;28;20117;-76
2022/05/26 10:40:25;;;;;;;12.77;2.92;;;;;;;23.22;41.39;102253.09;5049026;28;20387;-75
2022/05/26 10:42:59;;;;;;;9.45;2.42;;;;;;;22.68;42.49;102243.34;5050405;28;20033;-75
2022/05/26 10:45:33;;;;;;;9.35;2.20;;;;;;;21.89;44.07;102242.84;5050267;28;20033;-75
2022/05/26 10:48:09;;;;;;;8.93;2.22;;;;;;;22.83;42.41;102248.78;5050481;28;20032;-76
2022/05/26 10:50:52;;;;;;;9.93;2.85;;;;;;;22.37;43.07;102254.31;5049854;28;20029;-76
2022/05/26 10:53:23;;;;;;;8.13;2.10;;;;;;;21.47;44.87;102250.34;5050067;28;20081;-76
2022/05/26 10:56:06;;;;;;;10.35;2.40;;;;;;;21.48;45.43;102255.56;5050338;28;20029;-75
2022/05/26 10:58:42;;;;;;;9.02;2.40;;;;;;;22.45;45.11;102243.41;5050265;28;20395;-75
2022/05/26 11:01:28;;;;;;;13.00;2.80;;;;;;;23.37;43.20;102246.81;5050351;28;20480;-76
2022/05/26 11:04:02;;;;;;;8.15;2.35;;;;;;;23.12;39.86;102233.53;5041292;28;20064;-76
2022/05/26 11:06:32;;;;;;;6.65;2.10;;;;;;;23.74;39.79;102225.91;5049026;28;20418;-75
2022/05/26 11:09:19;;;;;;;10.90;2.28;;;;;;;23.97;37.49;102235.78;5049228;28;20033;-78
2022/05/26 11:11:51;;;;;;;8.85;1.85;;;;;;;24.10;38.63;102230.47;5050238;28;20171;-76
2022/05/26 11:17:23;;;;;;;10.90;2.42;;;;;;;24.16;40.07;102221.50;5050235;28;20091;-76
2022/05/26 11:20:06;;;;;;;7.13;2.03;;;;;;;24.12;39.28;102225.66;5050127;28;20025;-76
2022/05/26 11:22:31;;;;;;;10.05;2.40;;;;;;;24.67;37.18;102223.16;5050458;28;20041;-76
2022/05/26 11:24:58;;;;;;;12.88;2.72;;;;;;;24.87;38.54;102214.28;5050006;28;20032;-76
2022/05/26 11:27:47;;;;;;;8.38;2.55;;;;;;;24.67;39.07;102220.44;5050509;28;20029;-76
2022/05/26 11:36:08;;;;;;;12.25;1.90;;;;;;;23.58;38.51;102229.69;5050232;28;20063;-76
2022/05/26 11:38:46;;;;;;;4.50;1.85;;;;;;;23.02;39.96;102247.38;5049710;28;20073;-76
2022/05/26 11:41:24;;;;;;;8.85;2.00;;;;;;;21.90;42.03;102249.91;5049789;28;20576;-76
2022/05/26 11:44:08;;;;;;;6.20;1.65;;;;;;;21.94;41.87;102251.25;5050471;28;20029;-75
2022/05/26 11:46:47;;;;;;;5.55;1.70;;;;;;;21.97;43.10;102256.31;5050047;28;20056;-76
2022/05/26 11:49:43;;;;;;;7.38;1.88;;;;;;;22.49;41.43;102250.13;5049951;28;20075;-77
2022/05/26 11:52:22;;;;;;;9.77;1.80;;;;;;;21.98;40.54;102242.56;5049417;28;20414;-77
2022/05/26 11:54:55;;;;;;;5.55;1.65;;;;;;;21.85;42.24;102264.00;5049948;28;20448;-75
2022/05/26 11:57:33;;;;;;;8.18;2.00;;;;;;;22.11;40.77;102250.09;5049256;28;20401;-75
2022/05/26 12:00:23;;;;;;;5.03;1.80;;;;;;;22.44;41.40;102244.44;5050022;28;20035;-75
2022/05/26 12:02:53;;;;;;;9.45;1.52;;;;;;;22.41;40.44;102258.34;5051844;28;20074;-76
2022/05/26 12:05:30;;;;;;;5.50;1.87;;;;;;;22.49;41.89;102250.13;5053501;28;20176;-76
2022/05/26 12:07:59;;;;;;;6.63;1.60;;;;;;;22.87;41.00;102252.81;5051940;28;20029;-75
2022/05/26 12:10:30;;;;;;;7.97;1.98;;;;;;;22.91;40.21;102252.44;5051733;28;20373;-77
2022/05/26 12:13:23;;;;;;;4.88;1.80;;;;;;;22.39;40.92;102251.44;5053143;28;20028;-75
2022/05/26 12:16:06;;;;;;;7.28;1.70;;;;;;;22.43;41.00;102255.47;5053351;28;20031;-74
2022/05/26 12:18:49;;;;;;;5.68;1.80;;;;;;;23.13;40.63;102250.69;5053455;28;20041;-75
2022/05/26 12:21:21;;;;;;;7.38;1.83;;;;;;;23.93;37.86;102260.63;5052979;28;20496;-75